createdAt,value
2018-02-13T00:01:15.840Z,66.93
2018-02-13T00:03:42.079Z,66.95
2018-02-13T00:06:08.350Z,66.93
2018-02-13T00:08:35.270Z,66.74
2018-02-13T00:11:01.588Z,66.91
2018-02-13T00:13:27.886Z,66.84
2018-02-13T00:15:55.662Z,66.83
2018-02-13T00:18:21.934Z,66.83
2018-02-13T00:20:48.231Z,66.97
2018-02-13T00:23:14.454Z,66.62
2018-02-13T00:25:40.708Z,66.81
2018-02-13T00:28:07.004Z,67.01
2018-02-13T00:30:34.012Z,66.83
2018-02-13T00:33:00.265Z,67.04
2018-02-13T00:35:27.321Z,66.97
2018-02-13T00:37:54.369Z,66.96
2018-02-13T00:40:21.425Z,66.53
2018-02-13T00:42:48.487Z,66.79
2018-02-13T00:45:14.809Z,66.82
2018-02-13T00:47:41.870Z,66.49
2018-02-13T00:50:08.186Z,66.63
2018-02-13T00:52:35.220Z,66.35
2018-02-13T00:55:02.220Z,66.23
2018-02-13T00:57:28.506Z,66.41
2018-02-13T00:59:55.580Z,66.49
2018-02-13T01:02:21.851Z,65.86
2018-02-13T01:04:48.118Z,65.55
2018-02-13T01:07:15.154Z,65.87
2018-02-13T01:09:42.194Z,65.58
2018-02-13T01:12:08.442Z,66.14
2018-02-13T01:14:35.481Z,65.74
2018-02-13T01:17:02.538Z,65.52
2018-02-13T01:19:29.555Z,65.53
2018-02-13T01:21:55.835Z,65.33
2018-02-13T01:24:22.141Z,65.35
2018-02-13T01:26:49.159Z,65.45
2018-02-13T01:29:15.432Z,65.16
2018-02-13T01:31:41.689Z,65.01
2018-02-13T01:34:07.957Z,64.95
2018-02-13T01:36:34.252Z,64.95
2018-02-13T01:39:00.538Z,65.05
2018-02-13T01:41:26.836Z,65.09
2018-02-13T01:43:53.112Z,65.26
2018-02-13T01:46:19.439Z,65.28
2018-02-13T01:48:45.726Z,65.12
2018-02-13T01:51:12.150Z,65.33
2018-02-13T01:53:38.422Z,65.51
2018-02-13T01:56:05.466Z,64.96
2018-02-13T01:58:32.514Z,64.85
2018-02-13T02:00:59.552Z,64.82
2018-02-13T02:03:25.823Z,65.29
2018-02-13T02:05:52.122Z,65.40
2018-02-13T02:08:19.171Z,65.39
2018-02-13T02:10:46.223Z,65.61
2018-02-13T02:13:13.291Z,65.91
2018-02-13T02:15:39.610Z,66.31
2018-02-13T02:18:05.933Z,66.31
2018-02-13T02:20:33.061Z,66.48
2018-02-13T02:22:59.398Z,66.55
2018-02-13T02:25:25.719Z,66.84
2018-02-13T02:27:51.991Z,67.04
2018-02-13T02:30:18.298Z,66.97
2018-02-13T02:32:45.322Z,67.05
2018-02-13T02:35:12.610Z,66.85
2018-02-13T02:37:38.936Z,66.74
2018-02-13T02:40:05.240Z,66.89
2018-02-13T02:42:50.233Z,66.71
2018-02-13T02:45:17.255Z,66.73
2018-02-13T02:47:43.551Z,66.77
2018-02-13T02:50:09.836Z,66.78
2018-02-13T02:52:36.138Z,66.68
2018-02-13T02:55:02.448Z,66.44
2018-02-13T02:57:28.733Z,66.42
2018-02-13T02:59:55.738Z,66.68
2018-02-13T03:02:22.010Z,66.62
2018-02-13T03:04:48.268Z,66.18
2018-02-13T03:07:14.534Z,66.61
2018-02-13T03:09:40.910Z,66.15
2018-02-13T03:12:07.131Z,65.69
2018-02-13T03:14:33.412Z,65.35
2018-02-13T03:16:59.654Z,64.70
2018-02-13T03:19:25.942Z,64.40
2018-02-13T03:21:52.215Z,64.23
2018-02-13T03:24:18.474Z,63.90
2018-02-13T03:26:52.363Z,63.73
2018-02-13T03:29:18.641Z,63.73
2018-02-13T03:31:44.896Z,63.43
2018-02-13T03:34:11.152Z,62.80
2018-02-13T03:36:37.413Z,63.04
2018-02-13T03:39:03.746Z,62.92
2018-02-13T03:41:30.748Z,63.36
2018-02-13T03:43:57.012Z,63.37
2018-02-13T03:46:24.052Z,62.74
2018-02-13T03:48:51.068Z,62.55
2018-02-13T03:51:17.326Z,62.85
2018-02-13T03:53:43.592Z,63.72
2018-02-13T03:56:09.834Z,64.04
2018-02-13T03:58:36.146Z,64.02
2018-02-13T04:01:02.431Z,64.70
2018-02-13T04:03:28.738Z,64.75
2018-02-13T04:05:55.021Z,64.97
2018-02-13T04:08:22.028Z,64.88
2018-02-13T04:10:48.301Z,64.69
2018-02-13T04:13:15.336Z,64.74
2018-02-13T04:15:42.351Z,65.09
2018-02-13T04:18:08.659Z,65.69
2018-02-13T04:20:34.960Z,65.76
2018-02-13T04:23:01.997Z,66.42
2018-02-13T04:25:29.091Z,67.01
2018-02-13T04:27:55.382Z,67.12
2018-02-13T04:30:22.391Z,67.22
2018-02-13T04:32:48.672Z,67.34
2018-02-13T04:35:14.952Z,67.39
2018-02-13T04:37:41.196Z,67.21
2018-02-13T04:40:07.436Z,67.40
2018-02-13T04:42:34.484Z,67.25
2018-02-13T04:45:01.576Z,67.61
2018-02-13T04:47:27.936Z,67.53
2018-02-13T04:49:54.199Z,67.36
2018-02-13T04:52:21.239Z,67.43
2018-02-13T04:54:47.550Z,67.50
2018-02-13T04:57:13.816Z,67.73
2018-02-13T04:59:40.855Z,67.87
2018-02-13T05:02:07.972Z,67.99
2018-02-13T05:04:34.205Z,67.74
2018-02-13T05:07:01.204Z,68.02
2018-02-13T05:09:27.525Z,67.88
2018-02-13T05:11:54.571Z,68.14
2018-02-13T05:14:21.669Z,68.14
2018-02-13T05:16:47.955Z,68.01
2018-02-13T05:19:14.278Z,67.74
2018-02-13T05:21:41.296Z,67.76
2018-02-13T05:24:07.590Z,67.97
2018-02-13T05:26:33.860Z,68.15
2018-02-13T05:29:00.159Z,67.88
2018-02-13T05:31:26.449Z,67.89
2018-02-13T05:33:53.454Z,67.99
2018-02-13T05:36:20.438Z,68.03
2018-02-13T05:38:47.554Z,68.22
2018-02-13T05:41:13.882Z,68.15
2018-02-13T05:43:40.179Z,68.20
2018-02-13T05:46:06.476Z,68.13
2018-02-13T05:48:33.545Z,68.32
2018-02-13T05:50:59.840Z,68.82
2018-02-13T05:53:26.137Z,68.95
2018-02-13T05:55:52.411Z,68.83
2018-02-13T05:58:19.455Z,68.76
2018-02-13T06:00:46.475Z,68.45
2018-02-13T06:03:12.731Z,68.61
2018-02-13T06:05:39.792Z,68.41
2018-02-13T06:08:06.088Z,68.10
2018-02-13T06:10:32.410Z,68.48
2018-02-13T06:12:58.695Z,68.38
2018-02-13T06:15:24.976Z,68.49
2018-02-13T06:17:51.300Z,68.58
2018-02-13T06:20:17.666Z,68.48
2018-02-13T06:22:43.928Z,68.44
2018-02-13T06:25:10.170Z,68.71
2018-02-13T06:27:36.410Z,68.99
2018-02-13T06:30:02.686Z,69.04
2018-02-13T06:32:29.694Z,69.26
2018-02-13T06:34:55.974Z,69.17
2018-02-13T06:37:22.230Z,69.37
2018-02-13T06:39:48.544Z,68.80
2018-02-13T06:42:14.809Z,68.95
2018-02-13T06:44:41.131Z,68.98
2018-02-13T06:47:07.466Z,68.53
2018-02-13T06:49:33.764Z,68.23
2018-02-13T06:52:00.033Z,68.34
2018-02-13T06:54:26.328Z,67.91
2018-02-13T06:56:52.654Z,67.78
2018-02-13T06:59:18.925Z,67.34
2018-02-13T07:01:45.215Z,66.90
2018-02-13T07:04:11.481Z,66.72
2018-02-13T07:06:37.819Z,66.33
2018-02-13T07:09:04.139Z,66.00
2018-02-13T07:11:30.480Z,66.00
2018-02-13T07:13:56.831Z,65.85
2018-02-13T07:16:23.135Z,65.33
2018-02-13T07:18:49.460Z,65.11
2018-02-13T07:21:15.787Z,65.43
2018-02-13T07:23:42.054Z,64.97
2018-02-13T07:26:08.320Z,64.74
2018-02-13T07:28:34.726Z,64.24
2018-02-13T07:31:00.982Z,63.42
2018-02-13T07:33:31.224Z,63.39
2018-02-13T07:35:58.362Z,63.06
2018-02-13T07:38:24.599Z,62.44
2018-02-13T07:40:50.863Z,61.98
2018-02-13T07:43:17.140Z,61.68
2018-02-13T07:45:44.191Z,61.53
2018-02-13T07:50:44.074Z,62.08
2018-02-13T07:53:10.320Z,61.83
2018-02-13T07:55:36.624Z,61.62
2018-02-13T07:58:03.759Z,60.64
2018-02-13T08:00:30.073Z,60.18
2018-02-13T08:02:56.398Z,60.04
2018-02-13T08:05:22.709Z,59.86
2018-02-13T08:07:49.055Z,58.55
2018-02-13T08:10:16.109Z,57.43
2018-02-13T08:12:42.423Z,56.90
2018-02-13T08:15:08.721Z,57.04
2018-02-13T08:17:35.033Z,56.78
2018-02-13T08:20:01.355Z,56.41
2018-02-13T08:22:27.661Z,56.24
2018-02-13T08:24:53.913Z,56.76
2018-02-13T08:27:20.159Z,57.81
2018-02-13T08:29:46.463Z,59.26
2018-02-13T08:32:19.763Z,59.50
2018-02-13T08:34:46.093Z,58.27
2018-02-13T08:37:12.407Z,57.37
2018-02-13T08:39:38.683Z,57.38
2018-02-13T08:42:05.013Z,57.59
2018-02-13T08:44:31.299Z,58.16
2018-02-13T08:46:57.573Z,58.18
2018-02-13T08:49:23.861Z,57.28
2018-02-13T08:51:50.136Z,56.81
2018-02-13T08:54:16.504Z,56.48
2018-02-13T08:56:43.508Z,56.80
2018-02-13T08:59:09.846Z,57.47
2018-02-13T09:01:36.208Z,57.75
2018-02-13T09:04:02.503Z,57.19
2018-02-13T09:06:28.794Z,57.17
2018-02-13T09:08:55.135Z,56.39
2018-02-13T09:11:21.465Z,56.16
2018-02-13T09:13:47.764Z,56.62
2018-02-13T09:16:14.784Z,55.09
2018-02-13T09:18:41.095Z,54.29
2018-02-13T09:21:07.425Z,53.55
2018-02-13T09:23:33.730Z,53.24
2018-02-13T09:25:59.988Z,53.03
2018-02-13T09:28:26.291Z,53.45
2018-02-13T09:30:52.625Z,52.62
2018-02-13T09:33:18.874Z,53.30
2018-02-13T09:35:45.206Z,53.90
2018-02-13T09:38:11.487Z,54.68
2018-02-13T09:40:38.535Z,52.82
2018-02-13T09:43:05.639Z,51.71
2018-02-13T09:45:31.953Z,52.19
2018-02-13T09:47:58.311Z,51.94
2018-02-13T09:50:24.603Z,50.84
2018-02-13T09:52:51.023Z,49.82
2018-02-13T09:55:18.049Z,48.87
2018-02-13T09:57:44.306Z,47.96
2018-02-13T10:00:10.555Z,49.00
2018-02-13T10:02:36.830Z,49.66
2018-02-13T10:05:03.109Z,50.41
2018-02-13T10:07:29.396Z,49.79
2018-02-13T10:09:55.688Z,49.26
2018-02-13T10:12:22.017Z,48.86
2018-02-13T10:14:48.315Z,49.19
2018-02-13T10:17:15.368Z,49.11
2018-02-13T10:19:41.632Z,48.75
2018-02-13T10:22:07.931Z,47.29
2018-02-13T10:24:34.187Z,46.43
2018-02-13T10:27:00.474Z,45.91
2018-02-13T10:29:27.446Z,44.89
2018-02-13T10:31:53.739Z,43.17
2018-02-13T10:34:20.044Z,42.89
2018-02-13T10:36:46.321Z,42.75
2018-02-13T10:39:13.345Z,41.67
2018-02-13T10:41:39.614Z,41.49
2018-02-13T10:44:05.919Z,40.13
2018-02-13T10:46:33.091Z,39.36
2018-02-13T10:48:59.398Z,40.54
2018-02-13T10:51:26.439Z,40.09
2018-02-13T10:53:53.493Z,40.28
2018-02-13T10:56:20.553Z,40.46
2018-02-13T10:58:46.815Z,39.60
2018-02-13T11:04:22.624Z,38.65
2018-02-13T11:06:48.920Z,38.57
2018-02-13T11:09:15.186Z,38.17
2018-02-13T11:11:41.480Z,38.07
2018-02-13T11:14:07.763Z,37.28
2018-02-13T11:16:34.808Z,37.15
2018-02-13T11:19:01.906Z,35.95
2018-02-13T11:21:28.217Z,35.84
2018-02-13T11:23:54.587Z,35.77
2018-02-13T11:26:21.682Z,34.91
2018-02-13T11:28:48.689Z,34.84
2018-02-13T11:31:14.984Z,34.75
2018-02-13T11:33:41.328Z,35.54
2018-02-13T11:36:07.598Z,36.89
2018-02-13T11:38:33.888Z,36.63
2018-02-13T11:41:00.172Z,37.68
2018-02-13T11:43:27.186Z,36.44
2018-02-13T11:45:53.482Z,34.42
2018-02-13T11:48:19.788Z,33.40
2018-02-13T11:50:46.800Z,33.70
2018-02-13T11:53:13.085Z,34.69
2018-02-13T11:55:39.368Z,32.63
2018-02-13T11:58:05.676Z,33.29
2018-02-13T12:00:32.000Z,35.01
2018-02-13T12:02:58.282Z,36.42
2018-02-13T12:05:24.597Z,36.86
2018-02-13T12:07:50.897Z,36.91
2018-02-13T12:10:17.196Z,37.24
2018-02-13T12:12:43.487Z,36.61
2018-02-13T12:15:09.722Z,36.76
2018-02-13T12:17:36.763Z,36.65
2018-02-13T12:20:03.079Z,37.35
2018-02-13T12:22:29.359Z,37.37
2018-02-13T12:24:55.661Z,39.28
2018-02-13T12:27:21.951Z,38.72
2018-02-13T12:29:48.287Z,38.13
2018-02-13T12:32:14.548Z,36.09
2018-02-13T12:34:40.851Z,34.63
2018-02-13T12:37:07.175Z,35.20
2018-02-13T12:39:33.481Z,36.04
2018-02-13T12:41:59.776Z,35.76
2018-02-13T12:44:26.808Z,34.80
2018-02-13T12:46:53.126Z,31.04
2018-02-13T12:49:19.548Z,30.44
2018-02-13T12:51:46.488Z,33.00
2018-02-13T12:54:12.791Z,31.91
2018-02-13T12:56:39.157Z,29.94
2018-02-13T12:59:05.474Z,25.04
2018-02-13T13:01:31.778Z,21.50
2018-02-13T13:03:58.851Z,19.02
2018-02-13T13:06:25.129Z,17.70
2018-02-13T13:08:51.416Z,19.21
2018-02-13T13:11:17.701Z,18.28
2018-02-13T13:13:43.983Z,16.34
2018-02-13T13:16:10.307Z,14.86
2018-02-13T13:18:36.653Z,15.64
2018-02-13T13:21:02.997Z,13.91
2018-02-13T13:23:30.825Z,11.69
2018-02-13T13:25:57.477Z,10.04
2018-02-13T13:28:23.789Z,11.01
2018-02-13T13:30:50.045Z,9.91
2018-02-13T13:33:16.372Z,11.10
2018-02-13T13:35:42.678Z,13.30
2018-02-13T13:38:08.932Z,14.01
2018-02-13T13:40:35.254Z,14.40
2018-02-13T13:43:01.603Z,15.99
2018-02-13T13:45:27.898Z,16.80
2018-02-13T13:47:54.225Z,19.71
2018-02-13T13:50:20.496Z,22.78
2018-02-13T13:52:47.352Z,24.95
2018-02-13T13:55:13.640Z,25.63
2018-02-13T13:57:39.900Z,26.31
2018-02-13T14:00:06.181Z,26.53
2018-02-13T14:02:32.426Z,25.42
2018-02-13T14:04:58.707Z,24.52
2018-02-13T14:07:24.996Z,22.84
2018-02-13T14:09:51.324Z,19.78
2018-02-13T14:12:17.652Z,16.83
2018-02-13T14:14:43.957Z,14.70
2018-02-13T14:17:11.871Z,16.61
2018-02-13T14:19:38.181Z,16.22
2018-02-13T14:22:04.485Z,15.62
2018-02-13T14:24:31.494Z,15.88
2018-02-13T14:26:57.865Z,17.44
2018-02-13T14:29:24.197Z,19.96
2018-02-13T14:31:51.268Z,22.22
2018-02-13T14:34:17.571Z,23.06
2018-02-13T14:36:44.652Z,23.69
2018-02-13T14:39:10.972Z,24.33
2018-02-13T14:41:37.308Z,25.65
2018-02-13T14:44:03.624Z,25.77
2018-02-13T14:46:30.658Z,26.78
2018-02-13T14:48:57.848Z,28.03
2018-02-13T14:51:24.134Z,29.46
2018-02-13T14:53:50.505Z,30.45
2018-02-13T14:56:16.797Z,31.66
2018-02-13T14:58:43.795Z,31.44
2018-02-13T15:01:10.105Z,32.17
2018-02-13T15:03:36.450Z,31.87
2018-02-13T15:06:02.735Z,31.37
2018-02-13T15:08:29.063Z,32.47
2018-02-13T15:10:56.103Z,32.71
2018-02-13T15:13:22.457Z,33.76
2018-02-13T15:15:49.479Z,33.16
2018-02-13T15:18:15.781Z,33.11
2018-02-13T15:20:42.142Z,33.25
2018-02-13T15:23:08.383Z,33.67
2018-02-13T15:25:34.719Z,34.62
2018-02-13T15:28:01.736Z,35.38
2018-02-13T15:30:28.004Z,35.45
2018-02-13T15:32:55.019Z,35.29
2018-02-13T15:35:22.072Z,34.97
2018-02-13T15:37:48.340Z,35.00
2018-02-13T15:40:15.352Z,36.00
2018-02-13T15:42:41.673Z,36.22
2018-02-13T15:45:07.998Z,36.38
2018-02-13T15:47:34.288Z,36.47
2018-02-13T15:50:00.568Z,35.94
2018-02-13T15:52:26.828Z,36.11
2018-02-13T15:54:53.835Z,36.09
2018-02-13T15:57:20.131Z,36.22
2018-02-13T15:59:46.379Z,36.79
2018-02-13T16:02:12.677Z,38.28
2018-02-13T16:04:39.742Z,38.96
2018-02-13T16:07:06.049Z,39.31
2018-02-13T16:09:33.061Z,39.26
2018-02-13T16:11:59.373Z,39.82
2018-02-13T16:14:25.719Z,41.22
2018-02-13T16:16:51.979Z,42.29
2018-02-13T16:19:18.993Z,42.82
2018-02-13T16:21:45.460Z,42.94
2018-02-13T16:24:12.495Z,43.00
2018-02-13T16:26:38.744Z,43.40
2018-02-13T16:29:05.080Z,44.15
2018-02-13T16:31:32.052Z,44.88
2018-02-13T16:33:58.343Z,45.00
2018-02-13T16:36:25.373Z,45.52
2018-02-13T16:38:51.636Z,46.30
2018-02-13T16:41:18.640Z,46.98
2018-02-13T16:43:44.962Z,47.45
2018-02-13T16:46:11.241Z,48.08
2018-02-13T16:48:38.243Z,48.66
2018-02-13T16:51:05.334Z,49.50
2018-02-13T16:53:32.327Z,50.08
2018-02-13T16:55:58.595Z,50.06
2018-02-13T16:58:24.848Z,50.22
2018-02-13T17:00:51.856Z,51.01
2018-02-13T17:03:18.108Z,51.48
2018-02-13T17:05:45.130Z,51.57
2018-02-13T17:08:11.422Z,51.75
2018-02-13T17:10:37.684Z,52.11
2018-02-13T17:13:03.989Z,52.39
2018-02-13T17:15:30.268Z,52.79
2018-02-13T17:17:56.576Z,53.14
2018-02-13T17:20:22.937Z,53.08
2018-02-13T17:22:50.303Z,53.02
2018-02-13T17:25:16.833Z,53.27
2018-02-13T17:27:43.548Z,54.17
2018-02-13T17:30:10.604Z,54.23
2018-02-13T17:32:37.709Z,54.14
2018-02-13T17:35:04.051Z,54.76
2018-02-13T17:37:30.371Z,55.06
2018-02-13T17:39:57.171Z,55.52
2018-02-13T17:42:23.466Z,55.88
2018-02-13T17:44:50.533Z,56.92
2018-02-13T17:47:16.827Z,57.28
2018-02-13T17:49:43.139Z,57.21
2018-02-13T17:52:09.436Z,57.41
2018-02-13T17:54:35.716Z,57.43
2018-02-13T17:57:02.152Z,58.16
2018-02-13T17:59:29.164Z,58.30
2018-02-13T18:01:56.210Z,58.70
2018-02-13T18:04:23.362Z,58.64
2018-02-13T18:06:49.932Z,58.65
2018-02-13T18:09:16.204Z,58.93
2018-02-13T18:11:42.557Z,58.93
2018-02-13T18:14:09.626Z,58.95
2018-02-13T18:16:35.965Z,58.84
2018-02-13T18:19:02.251Z,58.48
2018-02-13T18:21:28.533Z,57.76
2018-02-13T18:23:55.013Z,58.08
2018-02-13T18:26:21.357Z,57.91
2018-02-13T18:28:48.469Z,57.75
2018-02-13T18:31:15.556Z,57.90
2018-02-13T18:33:42.774Z,57.96
2018-02-13T18:36:09.111Z,58.13
2018-02-13T18:38:35.402Z,58.14
2018-02-13T18:41:01.764Z,58.43
2018-02-13T18:43:28.134Z,58.68
2018-02-13T18:45:55.174Z,59.31
2018-02-13T18:48:21.511Z,59.55
2018-02-13T18:50:49.525Z,59.74
2018-02-13T18:53:15.828Z,60.10
2018-02-13T18:55:43.330Z,60.32
2018-02-13T18:58:09.629Z,60.96
2018-02-13T19:00:36.098Z,61.18
2018-02-13T19:03:02.416Z,61.06
2018-02-13T19:05:28.693Z,61.02
2018-02-13T19:07:55.010Z,61.22
2018-02-13T19:10:21.292Z,61.04
2018-02-13T19:12:47.590Z,61.20
2018-02-13T19:15:14.662Z,61.82
2018-02-13T19:17:40.945Z,61.04
2018-02-13T19:20:07.198Z,61.54
2018-02-13T19:22:34.257Z,61.24
2018-02-13T19:25:00.566Z,61.71
2018-02-13T19:27:26.867Z,61.58
2018-02-13T19:29:53.148Z,62.06
2018-02-13T19:32:20.243Z,61.62
2018-02-13T19:34:46.591Z,62.16
2018-02-13T19:37:12.843Z,62.37
2018-02-13T19:39:39.149Z,62.64
2018-02-13T19:42:05.422Z,62.88
2018-02-13T19:44:32.512Z,63.16
2018-02-13T19:47:00.311Z,63.10
2018-02-13T19:49:26.709Z,62.97
2018-02-13T19:51:52.983Z,62.87
2018-02-13T19:54:20.015Z,62.87
2018-02-13T19:56:46.335Z,62.94
2018-02-13T19:59:12.607Z,62.97
2018-02-13T20:01:39.623Z,63.29
2018-02-13T20:04:05.905Z,63.64
2018-02-13T20:06:32.260Z,63.58
2018-02-13T20:08:58.534Z,63.45
2018-02-13T20:11:25.540Z,63.51
2018-02-13T20:13:52.869Z,63.28
2018-02-13T20:16:19.220Z,63.69
2018-02-13T20:18:45.526Z,64.38
2018-02-13T20:21:11.895Z,64.70
2018-02-13T20:23:38.193Z,64.74
2018-02-13T20:26:04.585Z,64.68
2018-02-13T20:28:30.900Z,64.53
2018-02-13T20:30:57.942Z,63.85
2018-02-13T20:33:24.256Z,63.75
2018-02-13T20:35:50.561Z,63.55
2018-02-13T20:38:16.847Z,63.74
2018-02-13T20:40:43.123Z,63.87
2018-02-13T20:43:09.433Z,64.18
2018-02-13T20:45:36.522Z,64.35
2018-02-13T20:48:02.923Z,64.21
2018-02-13T20:50:29.193Z,64.46
2018-02-13T20:52:55.690Z,64.30
2018-02-13T20:55:21.948Z,64.28
2018-02-13T20:57:48.254Z,64.16
2018-02-13T21:00:15.978Z,64.25
2018-02-13T21:02:42.272Z,64.47
2018-02-13T21:05:08.558Z,64.38
2018-02-13T21:07:35.643Z,65.32
2018-02-13T21:10:01.913Z,65.82
2018-02-13T21:12:28.204Z,65.73
2018-02-13T21:14:54.449Z,65.89
2018-02-13T21:17:20.736Z,65.77
2018-02-13T21:19:47.735Z,65.80
2018-02-13T21:22:14.035Z,65.81
2018-02-13T21:24:40.407Z,66.04
2018-02-13T21:27:06.633Z,65.82
2018-02-13T21:29:32.919Z,66.25
2018-02-13T21:31:59.183Z,66.51
2018-02-13T21:34:25.505Z,66.60
2018-02-13T21:36:51.807Z,66.73
2018-02-13T21:39:18.116Z,66.75
2018-02-13T21:41:45.140Z,66.86
2018-02-13T21:44:11.428Z,66.62
2018-02-13T21:46:37.739Z,67.08
2018-02-13T21:49:04.121Z,66.97
2018-02-13T21:51:30.437Z,66.99
2018-02-13T21:53:56.815Z,67.00
2018-02-13T21:56:23.876Z,67.31
2018-02-13T21:58:50.868Z,67.52
2018-02-13T22:01:17.112Z,67.93
2018-02-13T22:03:43.350Z,68.08
2018-02-13T22:06:09.635Z,67.99
2018-02-13T22:08:35.967Z,67.77
2018-02-13T22:11:02.255Z,67.56
2018-02-13T22:13:28.524Z,67.92
2018-02-13T22:15:54.826Z,68.22
2018-02-13T22:18:21.812Z,68.21
2018-02-13T22:20:48.054Z,67.97
2018-02-13T22:23:14.298Z,67.76
2018-02-13T22:25:40.557Z,67.77
2018-02-13T22:28:07.547Z,67.78
2018-02-13T22:30:33.805Z,67.99
2018-02-13T22:33:00.095Z,67.97
2018-02-13T22:35:26.418Z,68.02
2018-02-13T22:37:52.683Z,67.76
2018-02-13T22:40:18.983Z,67.66
2018-02-13T22:42:45.227Z,67.56
2018-02-13T22:45:11.467Z,67.38
2018-02-13T22:47:37.709Z,67.56
2018-02-13T22:50:03.981Z,67.46
2018-02-13T22:52:31.017Z,67.47
2018-02-13T22:54:57.989Z,67.78
2018-02-13T22:57:24.240Z,67.84
2018-02-13T22:59:50.507Z,67.64
2018-02-13T23:02:16.778Z,67.72
2018-02-13T23:04:43.044Z,67.64
2018-02-13T23:07:09.452Z,67.51
2018-02-13T23:09:35.727Z,67.26
2018-02-13T23:12:02.060Z,66.95
2018-02-13T23:14:28.334Z,66.65
2018-02-13T23:16:54.608Z,67.14
2018-02-13T23:19:20.865Z,67.88
2018-02-13T23:21:47.130Z,67.52
2018-02-13T23:24:13.408Z,67.33
2018-02-13T23:26:39.662Z,67.24
2018-02-13T23:29:06.657Z,67.16
2018-02-13T23:31:32.922Z,67.14
2018-02-13T23:33:59.178Z,67.30
2018-02-13T23:36:26.177Z,67.36
2018-02-13T23:38:52.453Z,67.36
2018-02-13T23:41:19.459Z,67.48
2018-02-13T23:43:45.697Z,67.63
2018-02-13T23:46:11.951Z,67.51
2018-02-13T23:48:38.997Z,67.59
2018-02-13T23:51:06.009Z,67.61
2018-02-13T23:53:32.257Z,67.58
2018-02-13T23:55:58.495Z,67.08
2018-02-13T23:58:24.778Z,66.83
